Time;durP1;ratioP1;P1;durP2;ratioP2;P2;SDS_P1;SDS_P2;PMS_P1;PMS_P2;Temp;Humidity;BMP_temperature;BMP_pressure;BME280_temperature;BME280_humidity;BME280_pressure;Samples;Min_cycle;Max_cycle;Signal;HPM_P1;HPM_P2
2023/07/30 00:01:00;;;;;;;2.30;2.00;;;;;;;;;;5057692;28;20229;-85
2023/07/30 00:03:28;;;;;;;2.10;1.90;;;;;;;;;;5056659;28;20280;-85
2023/07/30 00:05:55;;;;;;;3.00;2.22;;;;;;;;;;5057039;28;20685;-85
2023/07/30 00:08:24;;;;;;;1.92;1.73;;;;;;;;;;5056481;28;20236;-85
2023/07/30 00:10:57;;;;;;;1.90;1.70;;;;;;;;;;5056640;28;20740;-85
2023/07/30 00:13:40;;;;;;;1.60;1.50;;;;;;;;;;5056232;28;20314;-86
2023/07/30 00:16:07;;;;;;;1.55;1.45;;;;;;;;;;5056845;28;20229;-85
2023/07/30 00:18:34;;;;;;;1.98;1.70;;;;;;;;;;5046983;28;20269;-85
2023/07/30 00:21:02;;;;;;;2.40;1.70;;;;;;;;;;5056926;28;20225;-86
2023/07/30 00:23:29;;;;;;;2.03;1.60;;;;;;;;;;5056065;28;20225;-85
2023/07/30 00:26:02;;;;;;;1.65;1.55;;;;;;;;;;5056460;28;20194;-85
2023/07/30 00:28:29;;;;;;;1.70;1.60;;;;;;;;;;5055275;28;20290;-85
2023/07/30 00:30:56;;;;;;;2.58;1.40;;;;;;;;;;5056242;28;20225;-85
2023/07/30 00:33:27;;;;;;;1.98;1.77;;;;;;;;;;5054230;28;20233;-85
2023/07/30 00:35:54;;;;;;;1.30;1.20;;;;;;;;;;5054894;28;20209;-85
2023/07/30 00:38:30;;;;;;;1.55;1.45;;;;;;;;;;5053398;28;20266;-86
2023/07/30 00:40:59;;;;;;;2.35;1.45;;;;;;;;;;5054591;28;20232;-85
2023/07/30 00:43:28;;;;;;;1.20;1.13;;;;;;;;;;5055181;28;20257;-86
2023/07/30 00:45:55;;;;;;;1.58;1.48;;;;;;;;;;5056206;28;20206;-86
2023/07/30 00:48:28;;;;;;;2.20;2.10;;;;;;;;;;5054573;28;20309;-86
2023/07/30 00:51:05;;;;;;;1.23;1.20;;;;;;;;;;5054582;28;20229;-85
2023/07/30 00:53:33;;;;;;;3.10;1.40;;;;;;;;;;5054067;28;20233;-85
2023/07/30 00:56:01;;;;;;;2.85;1.50;;;;;;;;;;5055760;28;20281;-85
2023/07/30 00:58:29;;;;;;;2.00;1.35;;;;;;;;;;5053023;28;20237;-85
2023/07/30 01:00:56;;;;;;;1.63;1.52;;;;;;;;;;5035923;28;20227;-85
2023/07/30 01:03:27;;;;;;;1.60;1.50;;;;;;;;;;5032811;28;20237;-85
2023/07/30 01:05:57;;;;;;;1.70;1.35;;;;;;;;;;5034913;28;20202;-85
2023/07/30 01:08:33;;;;;;;1.55;1.40;;;;;;;;;;5054791;28;20237;-84
2023/07/30 01:11:06;;;;;;;2.15;1.67;;;;;;;;;;5043789;28;20273;-85
2023/07/30 01:13:35;;;;;;;1.90;1.80;;;;;;;;;;5034514;28;20241;-86
2023/07/30 01:16:11;;;;;;;1.85;1.33;;;;;;;;;;5034937;28;20207;-86
2023/07/30 01:18:41;;;;;;;1.10;1.10;;;;;;;;;;5033970;28;20638;-86
2023/07/30 01:21:09;;;;;;;1.50;1.40;;;;;;;;;;5033669;28;20234;-82
2023/07/30 01:23:36;;;;;;;1.52;1.40;;;;;;;;;;5047967;28;20230;-82
2023/07/30 01:26:09;;;;;;;1.35;1.25;;;;;;;;;;5053828;28;20209;-82
2023/07/30 01:28:39;;;;;;;1.48;1.38;;;;;;;;;;5053109;28;20234;-82
2023/07/30 01:31:18;;;;;;;2.42;1.60;;;;;;;;;;5053609;28;20276;-82
2023/07/30 01:33:58;;;;;;;2.67;1.50;;;;;;;;;;5041725;28;20237;-83
2023/07/30 01:36:27;;;;;;;1.67;1.50;;;;;;;;;;5053341;28;20673;-82
2023/07/30 01:38:58;;;;;;;2.30;1.73;;;;;;;;;;5042890;28;20798;-82
2023/07/30 01:41:28;;;;;;;1.50;1.40;;;;;;;;;;5053703;28;20219;-82
2023/07/30 01:43:58;;;;;;;1.60;1.50;;;;;;;;;;5052811;28;20326;-82
2023/07/30 01:46:25;;;;;;;1.65;1.30;;;;;;;;;;5053674;28;20749;-82
2023/07/30 01:48:58;;;;;;;1.58;1.48;;;;;;;;;;5041792;28;20225;-82
2023/07/30 01:51:26;;;;;;;1.63;1.52;;;;;;;;;;5053252;28;20587;-82
2023/07/30 01:54:16;;;;;;;3.72;1.40;;;;;;;;;;5048840;28;20238;-82
2023/07/30 01:56:50;;;;;;;1.38;1.27;;;;;;;;;;5047028;28;20202;-82
2023/07/30 01:59:17;;;;;;;4.43;1.60;;;;;;;;;;5043090;28;20233;-82
2023/07/30 02:01:45;;;;;;;1.77;1.67;;;;;;;;;;5032724;28;20210;-83
2023/07/30 02:04:12;;;;;;;4.00;1.58;;;;;;;;;;5033659;28;20612;-82
2023/07/30 02:06:41;;;;;;;1.40;1.33;;;;;;;;;;5032988;28;20231;-83
2023/07/30 02:09:08;;;;;;;1.60;1.50;;;;;;;;;;5033573;28;20203;-83
2023/07/30 02:11:35;;;;;;;1.75;1.50;;;;;;;;;;5032861;28;20288;-83
2023/07/30 02:14:04;;;;;;;1.70;1.60;;;;;;;;;;5033511;28;20213;-82
2023/07/30 02:16:32;;;;;;;1.63;1.52;;;;;;;;;;5036929;28;20289;-83
2023/07/30 02:18:59;;;;;;;1.95;1.75;;;;;;;;;;5037049;28;20262;-82
2023/07/30 02:21:26;;;;;;;1.77;1.67;;;;;;;;;;5037563;28;20273;-82
2023/07/30 02:23:54;;;;;;;1.77;1.67;;;;;;;;;;5036986;28;20290;-82
2023/07/30 02:26:22;;;;;;;2.40;1.67;;;;;;;;;;5037103;28;20268;-82
2023/07/30 02:28:52;;;;;;;1.65;1.55;;;;;;;;;;5037457;28;20251;-82
2023/07/30 02:31:27;;;;;;;3.30;1.73;;;;;;;;;;5036343;28;20206;-82
2023/07/30 02:33:54;;;;;;;1.63;1.52;;;;;;;;;;5035507;28;20253;-81
2023/07/30 02:36:21;;;;;;;1.60;1.50;;;;;;;;;;5036298;28;20238;-82
2023/07/30 02:38:48;;;;;;;1.70;1.60;;;;;;;;;;5035482;28;20236;-82
2023/07/30 02:41:17;;;;;;;3.15;1.92;;;;;;;;;;5037022;28;20214;-82
2023/07/30 02:43:45;;;;;;;1.98;1.60;;;;;;;;;;5035622;28;20245;-82
2023/07/30 02:46:14;;;;;;;2.00;1.60;;;;;;;;;;5037286;28;20202;-82
2023/07/30 02:48:44;;;;;;;1.45;1.30;;;;;;;;;;5036393;28;20259;-82
2023/07/30 02:51:11;;;;;;;1.50;1.40;;;;;;;;;;5036755;28;20226;-82
2023/07/30 02:53:40;;;;;;;1.80;1.70;;;;;;;;;;5036507;28;20238;-82
2023/07/30 02:56:09;;;;;;;1.50;1.40;;;;;;;;;;5036913;28;20195;-82
2023/07/30 02:58:49;;;;;;;1.50;1.40;;;;;;;;;;5041026;28;20233;-82
2023/07/30 03:01:20;;;;;;;1.75;1.48;;;;;;;;;;5057010;28;20225;-82
2023/07/30 03:03:52;;;;;;;2.10;1.52;;;;;;;;;;5056198;28;20715;-82
2023/07/30 03:06:19;;;;;;;4.30;1.52;;;;;;;;;;5056870;28;20629;-82
2023/07/30 03:08:52;;;;;;;1.65;1.55;;;;;;;;;;5055783;28;20268;-82
2023/07/30 03:11:20;;;;;;;1.10;1.10;;;;;;;;;;5056516;28;20341;-82
2023/07/30 03:13:48;;;;;;;1.70;1.60;;;;;;;;;;5055961;28;20731;-82
2023/07/30 03:16:15;;;;;;;1.33;1.23;;;;;;;;;;5056591;28;20245;-82
2023/07/30 03:18:42;;;;;;;1.70;1.60;;;;;;;;;;5055812;28;20320;-82
2023/07/30 03:21:12;;;;;;;1.60;1.40;;;;;;;;;;5056723;28;20256;-82
2023/07/30 03:23:40;;;;;;;3.88;1.40;;;;;;;;;;5055883;28;20688;-82
2023/07/30 03:26:10;;;;;;;2.22;1.70;;;;;;;;;;5056095;28;20706;-81
2023/07/30 03:28:40;;;;;;;1.55;1.45;;;;;;;;;;5055895;28;20714;-82
2023/07/30 03:31:10;;;;;;;1.40;1.30;;;;;;;;;;5056316;28;20692;-81
2023/07/30 03:33:39;;;;;;;2.53;1.67;;;;;;;;;;5055739;28;20234;-82
2023/07/30 03:36:06;;;;;;;2.75;1.85;;;;;;;;;;5056594;28;20209;-82
2023/07/30 03:38:37;;;;;;;1.77;1.58;;;;;;;;;;5055961;28;20238;-82
2023/07/30 03:41:07;;;;;;;1.30;1.30;;;;;;;;;;5056082;28;20715;-82
2023/07/30 03:43:39;;;;;;;2.38;1.38;;;;;;;;;;5055177;28;20433;-82
2023/07/30 03:46:06;;;;;;;2.50;1.30;;;;;;;;;;5056264;28;20210;-82
2023/07/30 03:48:35;;;;;;;1.95;1.35;;;;;;;;;;5055249;28;20240;-81
2023/07/30 03:51:12;;;;;;;1.63;1.52;;;;;;;;;;5055807;28;20226;-82
2023/07/30 03:53:42;;;;;;;1.50;1.40;;;;;;;;;;5046632;28;20229;-82
2023/07/30 03:56:10;;;;;;;2.47;1.58;;;;;;;;;;5056344;28;20212;-81
2023/07/30 03:58:37;;;;;;;1.70;1.60;;;;;;;;;;5050120;28;20258;-82
2023/07/30 04:01:05;;;;;;;2.95;1.50;;;;;;;;;;5034510;28;20233;-82
2023/07/30 04:03:37;;;;;;;1.92;1.77;;;;;;;;;;5033228;28;20529;-82
2023/07/30 04:06:05;;;;;;;1.48;1.38;;;;;;;;;;5035232;28;20214;-82
2023/07/30 04:08:36;;;;;;;1.65;1.40;;;;;;;;;;5034768;28;20239;-82
2023/07/30 04:11:09;;;;;;;3.17;1.50;;;;;;;;;;5035576;28;20227;-82
2023/07/30 04:13:40;;;;;;;1.52;1.40;;;;;;;;;;5034979;28;20716;-82
2023/07/30 04:16:08;;;;;;;1.58;1.42;;;;;;;;;;5035802;28;20676;-82
2023/07/30 04:18:35;;;;;;;2.05;1.40;;;;;;;;;;5034980;28;20818;-82
2023/07/30 04:21:04;;;;;;;1.60;1.50;;;;;;;;;;5035508;28;20246;-82
2023/07/30 04:23:31;;;;;;;1.42;1.30;;;;;;;;;;5034925;28;20594;-82
2023/07/30 04:25:58;;;;;;;1.40;1.30;;;;;;;;;;5035258;28;20211;-82
2023/07/30 04:28:25;;;;;;;1.60;1.50;;;;;;;;;;5034803;28;20233;-82
2023/07/30 04:30:52;;;;;;;3.28;1.60;;;;;;;;;;5034918;28;20242;-82
2023/07/30 04:33:19;;;;;;;2.00;1.30;;;;;;;;;;5034612;28;20603;-81
2023/07/30 04:35:46;;;;;;;1.75;1.50;;;;;;;;;;5035359;28;20676;-82
2023/07/30 04:38:15;;;;;;;1.77;1.67;;;;;;;;;;5034183;28;20720;-82
2023/07/30 04:40:42;;;;;;;1.70;1.60;;;;;;;;;;5035357;28;20244;-82
2023/07/30 04:43:09;;;;;;;1.73;1.63;;;;;;;;;;5034818;28;20241;-83
2023/07/30 04:45:36;;;;;;;1.95;1.67;;;;;;;;;;5035306;28;20214;-82
2023/07/30 04:48:04;;;;;;;1.92;1.83;;;;;;;;;;5034671;28;20237;-82
2023/07/30 04:50:31;;;;;;;1.92;1.83;;;;;;;;;;5035234;28;20233;-82
2023/07/30 04:52:58;;;;;;;1.80;1.70;;;;;;;;;;5034705;28;20234;-83
2023/07/30 04:55:27;;;;;;;2.03;1.85;;;;;;;;;;5034837;28;20669;-83
2023/07/30 04:57:54;;;;;;;1.95;1.80;;;;;;;;;;5034037;28;20226;-82
2023/07/30 05:00:21;;;;;;;2.20;2.00;;;;;;;;;;5053583;28;20221;-82
2023/07/30 05:02:49;;;;;;;2.03;1.92;;;;;;;;;;5053910;28;20237;-82
2023/07/30 05:05:16;;;;;;;1.75;1.65;;;;;;;;;;5054790;28;20284;-82
2023/07/30 05:07:46;;;;;;;1.83;1.58;;;;;;;;;;5052509;28;20707;-81
2023/07/30 05:10:13;;;;;;;2.13;1.90;;;;;;;;;;5053022;28;20225;-80
2023/07/30 05:12:41;;;;;;;1.83;1.73;;;;;;;;;;5053215;28;20244;-83
2023/07/30 05:15:09;;;;;;;2.33;1.77;;;;;;;;;;5054525;28;20244;-83
2023/07/30 05:17:36;;;;;;;1.88;1.77;;;;;;;;;;5053958;28;20272;-82
2023/07/30 05:20:03;;;;;;;2.25;2.05;;;;;;;;;;5053988;28;20226;-84
2023/07/30 05:22:30;;;;;;;1.95;1.80;;;;;;;;;;5053510;28;20244;-82
2023/07/30 05:25:07;;;;;;;2.08;1.98;;;;;;;;;;5054406;28;20684;-83
2023/07/30 05:27:34;;;;;;;3.45;2.20;;;;;;;;;;5044191;28;20699;-83
2023/07/30 05:30:03;;;;;;;1.88;1.77;;;;;;;;;;5053787;28;20226;-83
2023/07/30 05:32:33;;;;;;;1.77;1.67;;;;;;;;;;5053544;28;20317;-83
2023/07/30 05:35:00;;;;;;;2.70;1.83;;;;;;;;;;5054102;28;20580;-83
2023/07/30 05:37:28;;;;;;;5.53;2.10;;;;;;;;;;5052538;28;20317;-83
2023/07/30 05:39:55;;;;;;;1.95;1.85;;;;;;;;;;5053907;28;20233;-82
2023/07/30 05:42:25;;;;;;;2.47;2.28;;;;;;;;;;5052436;28;20226;-83
2023/07/30 05:44:56;;;;;;;2.10;1.92;;;;;;;;;;5053687;28;20668;-83
2023/07/30 05:47:24;;;;;;;2.95;2.47;;;;;;;;;;5053889;28;20520;-82
2023/07/30 05:49:54;;;;;;;2.40;2.20;;;;;;;;;;5053087;28;20746;-83
2023/07/30 05:52:31;;;;;;;3.30;2.13;;;;;;;;;;5053248;28;20601;-83
2023/07/30 05:54:58;;;;;;;2.40;2.15;;;;;;;;;;5054135;28;20296;-83
2023/07/30 05:57:28;;;;;;;3.08;2.30;;;;;;;;;;5053434;28;20312;-82
2023/07/30 06:00:02;;;;;;;2.75;2.33;;;;;;;;;;5037365;28;20234;-82
2023/07/30 06:02:30;;;;;;;3.00;2.47;;;;;;;;;;5033454;28;20233;-83
2023/07/30 06:04:58;;;;;;;2.70;2.50;;;;;;;;;;5033831;28;20222;-82
2023/07/30 06:07:25;;;;;;;2.35;2.17;;;;;;;;;;5033118;28;20601;-82
2023/07/30 06:09:52;;;;;;;4.15;2.92;;;;;;;;;;5033512;28;20235;-82
2023/07/30 06:12:19;;;;;;;3.47;2.60;;;;;;;;;;5033581;28;20239;-82
2023/07/30 06:14:46;;;;;;;1.95;1.85;;;;;;;;;;5034081;28;20205;-83
2023/07/30 06:17:14;;;;;;;2.40;2.20;;;;;;;;;;5034042;28;20232;-83
2023/07/30 06:19:42;;;;;;;2.00;1.90;;;;;;;;;;5033668;28;20290;-83
2023/07/30 06:22:09;;;;;;;1.90;1.80;;;;;;;;;;5033671;28;20301;-83
2023/07/30 06:24:37;;;;;;;2.05;1.70;;;;;;;;;;5033013;28;20215;-84
2023/07/30 06:27:04;;;;;;;2.00;1.90;;;;;;;;;;5032321;28;20292;-83
2023/07/30 06:29:31;;;;;;;1.92;1.73;;;;;;;;;;5033333;28;20588;-84
2023/07/30 06:31:58;;;;;;;2.15;1.70;;;;;;;;;;5033358;28;20230;-83
2023/07/30 06:34:25;;;;;;;2.03;1.50;;;;;;;;;;5034294;28;20214;-84
2023/07/30 06:36:53;;;;;;;1.92;1.77;;;;;;;;;;5033574;28;20241;-83
2023/07/30 06:39:21;;;;;;;2.03;1.92;;;;;;;;;;5034114;28;20226;-84
2023/07/30 06:41:48;;;;;;;1.90;1.70;;;;;;;;;;5033274;28;20211;-84
2023/07/30 06:44:15;;;;;;;2.88;1.90;;;;;;;;;;5034090;28;20212;-83
2023/07/30 06:46:43;;;;;;;1.60;1.50;;;;;;;;;;5033092;28;20313;-84
2023/07/30 06:49:10;;;;;;;1.77;1.58;;;;;;;;;;5033607;28;20202;-83
2023/07/30 06:51:37;;;;;;;1.95;1.40;;;;;;;;;;5032827;28;20625;-83
2023/07/30 06:54:05;;;;;;;1.85;1.50;;;;;;;;;;5033681;28;20214;-83
2023/07/30 06:56:32;;;;;;;1.50;1.27;;;;;;;;;;5033147;28;20216;-83
2023/07/30 06:58:59;;;;;;;1.23;1.23;;;;;;;;;;5041336;28;20229;-85
2023/07/30 07:01:26;;;;;;;2.08;1.50;;;;;;;;;;5055107;28;20727;-84
2023/07/30 07:03:53;;;;;;;1.58;1.48;;;;;;;;;;5056668;28;20238;-83
2023/07/30 07:06:20;;;;;;;1.13;1.10;;;;;;;;;;5057291;28;20233;-83
2023/07/30 07:08:47;;;;;;;1.15;1.05;;;;;;;;;;5056470;28;20261;-82
2023/07/30 07:11:16;;;;;;;1.55;1.30;;;;;;;;;;5057189;28;20226;-83
2023/07/30 07:13:43;;;;;;;1.67;1.30;;;;;;;;;;5056292;28;20656;-83
2023/07/30 07:16:10;;;;;;;1.20;1.10;;;;;;;;;;5056819;28;20190;-83
2023/07/30 07:18:37;;;;;;;3.55;1.38;;;;;;;;;;5056239;28;20225;-82
2023/07/30 07:21:04;;;;;;;1.55;1.45;;;;;;;;;;5074933;22;20234;-80
2023/07/30 07:23:32;;;;;;;2.15;1.50;;;;;;;;;;5053347;28;20229;-80
2023/07/30 07:25:59;;;;;;;1.90;1.20;;;;;;;;;;5053883;28;20210;-80
2023/07/30 07:28:27;;;;;;;1.35;1.30;;;;;;;;;;5053257;28;20283;-80
2023/07/30 07:30:56;;;;;;;4.00;1.30;;;;;;;;;;5045367;28;20257;-80
2023/07/30 07:33:23;;;;;;;1.40;1.30;;;;;;;;;;5045017;28;20715;-80
2023/07/30 07:35:50;;;;;;;1.42;1.33;;;;;;;;;;5042188;28;20207;-80
2023/07/30 07:38:17;;;;;;;3.55;1.70;;;;;;;;;;5041696;28;20238;-80
2023/07/30 07:40:45;;;;;;;1.25;1.13;;;;;;;;;;5044067;28;20226;-80
2023/07/30 07:43:12;;;;;;;3.42;1.25;;;;;;;;;;5046747;28;20743;-80
2023/07/30 07:45:41;;;;;;;1.55;1.45;;;;;;;;;;5043504;28;20211;-82
2023/07/30 07:48:08;;;;;;;1.55;1.42;;;;;;;;;;5044845;28;20280;-83
2023/07/30 07:50:35;;;;;;;1.30;1.20;;;;;;;;;;5044039;28;20233;-84
2023/07/30 07:53:02;;;;;;;1.33;1.23;;;;;;;;;;5041263;28;20234;-83
2023/07/30 07:55:29;;;;;;;1.48;1.38;;;;;;;;;;5042061;28;20203;-83
2023/07/30 07:57:56;;;;;;;1.60;1.50;;;;;;;;;;5044434;28;20229;-83
2023/07/30 08:00:23;;;;;;;1.85;1.75;;;;;;;;;;5048980;28;20264;-84
2023/07/30 08:02:51;;;;;;;2.05;1.73;;;;;;;;;;5044125;28;20797;-84
2023/07/30 08:05:19;;;;;;;1.73;1.60;;;;;;;;;;5045011;28;20201;-84
2023/07/30 08:07:47;;;;;;;2.65;1.73;;;;;;;;;;5041506;28;20723;-85
2023/07/30 08:10:14;;;;;;;2.42;1.60;;;;;;;;;;5041591;28;20272;-86
2023/07/30 08:12:41;;;;;;;2.17;1.70;;;;;;;;;;5041794;28;20241;-85
2023/07/30 08:15:08;;;;;;;1.70;1.60;;;;;;;;;;5047648;28;20206;-85
2023/07/30 08:17:35;;;;;;;1.75;1.63;;;;;;;;;;5043286;28;20255;-86
2023/07/30 08:20:04;;;;;;;3.00;1.77;;;;;;;;;;5041362;28;20241;-86
2023/07/30 08:22:31;;;;;;;1.75;1.65;;;;;;;;;;5041137;28;20234;-86
2023/07/30 08:24:58;;;;;;;1.73;1.63;;;;;;;;;;5044563;28;21251;-85
2023/07/30 08:27:25;;;;;;;1.60;1.50;;;;;;;;;;5044287;28;20242;-86
2023/07/30 08:29:52;;;;;;;1.90;1.55;;;;;;;;;;5041099;28;20223;-86
2023/07/30 08:32:19;;;;;;;1.55;1.42;;;;;;;;;;5040731;28;20227;-85
2023/07/30 08:34:46;;;;;;;1.80;1.45;;;;;;;;;;5043382;28;20203;-85
2023/07/30 08:37:15;;;;;;;1.30;1.02;;;;;;;;;;5044334;28;20230;-85
2023/07/30 08:39:42;;;;;;;1.52;1.42;;;;;;;;;;5042352;28;20218;-85
2023/07/30 08:42:09;;;;;;;1.60;1.40;;;;;;;;;;5040300;28;20241;-85
2023/07/30 08:44:36;;;;;;;2.97;1.48;;;;;;;;;;5041630;28;20215;-85
2023/07/30 08:47:03;;;;;;;1.45;1.35;;;;;;;;;;5043894;28;20230;-85
2023/07/30 08:49:33;;;;;;;2.08;1.50;;;;;;;;;;5044006;28;20244;-85
2023/07/30 08:52:00;;;;;;;2.85;1.48;;;;;;;;;;5039935;28;20226;-84
2023/07/30 08:54:30;;;;;;;2.90;1.15;;;;;;;;;;5040742;28;20233;-84
2023/07/30 08:56:57;;;;;;;1.92;1.60;;;;;;;;;;5039960;28;20241;-84
2023/07/30 08:59:26;;;;;;;1.75;1.13;;;;;;;;;;5052009;28;20222;-84
2023/07/30 09:01:53;;;;;;;1.20;1.10;;;;;;;;;;5039735;28;20775;-85
2023/07/30 09:04:20;;;;;;;1.50;1.40;;;;;;;;;;5040577;28;20221;-84
2023/07/30 09:06:50;;;;;;;3.53;1.50;;;;;;;;;;5042005;28;20222;-84
2023/07/30 09:09:17;;;;;;;2.25;1.58;;;;;;;;;;5043802;28;20206;-83
2023/07/30 09:11:45;;;;;;;1.95;1.52;;;;;;;;;;5040965;28;20198;-84
2023/07/30 09:14:12;;;;;;;3.08;1.50;;;;;;;;;;5040518;28;20210;-84
2023/07/30 09:16:39;;;;;;;1.65;1.50;;;;;;;;;;5040975;28;20559;-84
2023/07/30 09:19:08;;;;;;;1.40;1.30;;;;;;;;;;5043585;28;20198;-84
2023/07/30 09:21:35;;;;;;;2.72;1.80;;;;;;;;;;5042149;28;20218;-84
2023/07/30 09:24:05;;;;;;;1.40;1.33;;;;;;;;;;5036148;28;20202;-84
2023/07/30 09:26:40;;;;;;;1.60;1.50;;;;;;;;;;5042722;28;20202;-84
2023/07/30 09:29:10;;;;;;;1.60;1.50;;;;;;;;;;5040183;28;20212;-84
2023/07/30 09:31:51;;;;;;;1.33;1.17;;;;;;;;;;5039858;28;20206;-85
2023/07/30 09:34:19;;;;;;;1.65;1.55;;;;;;;;;;5043349;28;20241;-84
2023/07/30 09:36:47;;;;;;;1.85;1.70;;;;;;;;;;5040560;28;20201;-84
2023/07/30 09:39:18;;;;;;;3.05;1.90;;;;;;;;;;5039782;28;20552;-84
2023/07/30 09:41:45;;;;;;;2.78;1.80;;;;;;;;;;5041306;28;20230;-84
2023/07/30 09:44:14;;;;;;;2.38;1.80;;;;;;;;;;5043677;28;20569;-83
2023/07/30 09:46:45;;;;;;;1.80;1.70;;;;;;;;;;5041251;28;20205;-83
2023/07/30 09:49:12;;;;;;;3.08;1.80;;;;;;;;;;5039793;28;20684;-83
2023/07/30 09:51:39;;;;;;;1.92;1.83;;;;;;;;;;5039789;28;20203;-83
2023/07/30 09:54:08;;;;;;;3.83;1.90;;;;;;;;;;5043659;28;20205;-83
2023/07/30 09:56:35;;;;;;;2.30;1.52;;;;;;;;;;5042358;28;20245;-84
2023/07/30 09:59:02;;;;;;;0.80;0.80;;;;;;;;;;5048046;28;20203;-82
2023/07/30 10:01:32;;;;;;;0.80;0.80;;;;;;;;;;5043216;28;20218;-83
2023/07/30 10:03:59;;;;;;;0.82;0.82;;;;;;;;;;5039273;28;20221;-84
2023/07/30 10:06:27;;;;;;;0.80;0.80;;;;;;;;;;5040236;28;20210;-83
2023/07/30 10:08:54;;;;;;;1.17;0.77;;;;;;;;;;5042852;28;20233;-83
2023/07/30 10:11:22;;;;;;;1.55;0.80;;;;;;;;;;5043755;28;20222;-83
2023/07/30 10:13:49;;;;;;;1.50;0.70;;;;;;;;;;5040713;28;20230;-84
2023/07/30 10:16:16;;;;;;;0.63;0.63;;;;;;;;;;5039682;28;20203;-83
2023/07/30 10:18:45;;;;;;;0.77;0.77;;;;;;;;;;5047163;28;20233;-82
2023/07/30 10:21:23;;;;;;;0.75;0.60;;;;;;;;;;5039273;28;20233;-83
2023/07/30 10:23:59;;;;;;;0.73;0.60;;;;;;;;;;5041088;28;20230;-83
2023/07/30 10:26:28;;;;;;;0.52;0.52;;;;;;;;;;5043145;28;20667;-83
2023/07/30 10:29:11;;;;;;;0.70;0.70;;;;;;;;;;5039529;28;20708;-83
2023/07/30 10:31:41;;;;;;;3.85;0.60;;;;;;;;;;5039130;28;20238;-83
2023/07/30 10:34:10;;;;;;;0.55;0.55;;;;;;;;;;5042760;28;20240;-83
2023/07/30 10:36:44;;;;;;;0.47;0.47;;;;;;;;;;5043869;28;20553;-83
2023/07/30 10:39:12;;;;;;;1.65;1.00;;;;;;;;;;5043487;28;20685;-83
2023/07/30 10:41:39;;;;;;;0.50;0.50;;;;;;;;;;5043058;28;20222;-83
2023/07/30 10:44:06;;;;;;;0.80;0.80;;;;;;;;;;5046607;28;20202;-83
2023/07/30 10:46:33;;;;;;;1.20;0.70;;;;;;;;;;5046112;28;20205;-84
2023/07/30 10:49:00;;;;;;;0.70;0.70;;;;;;;;;;5038503;28;20206;-83
2023/07/30 10:51:29;;;;;;;1.23;0.60;;;;;;;;;;5046229;28;20233;-83
2023/07/30 10:53:56;;;;;;;1.50;0.57;;;;;;;;;;5043384;28;20222;-83
2023/07/30 10:56:24;;;;;;;3.33;0.75;;;;;;;;;;5042920;28;20211;-83
2023/07/30 10:58:52;;;;;;;0.75;0.63;;;;;;;;;;5053869;28;20228;-83
2023/07/30 11:01:19;;;;;;;1.50;0.80;;;;;;;;;;5046138;28;20746;-83
2023/07/30 11:03:50;;;;;;;1.05;0.65;;;;;;;;;;5044576;28;20234;-83
2023/07/30 11:06:22;;;;;;;0.60;0.50;;;;;;;;;;5043056;28;20231;-83
2023/07/30 11:08:50;;;;;;;1.35;0.85;;;;;;;;;;5044258;28;20239;-83
2023/07/30 11:11:18;;;;;;;4.43;0.95;;;;;;;;;;5045388;28;20214;-84
2023/07/30 11:13:46;;;;;;;1.15;0.90;;;;;;;;;;5044582;28;20737;-85
2023/07/30 11:16:13;;;;;;;3.28;1.05;;;;;;;;;;5039220;28;20198;-83
2023/07/30 11:18:43;;;;;;;2.47;0.93;;;;;;;;;;5036870;28;20761;-84
2023/07/30 11:21:10;;;;;;;1.58;1.10;;;;;;;;;;5044692;28;20223;-81
2023/07/30 11:23:39;;;;;;;1.42;0.90;;;;;;;;;;5045026;28;20593;-84
2023/07/30 11:26:08;;;;;;;4.38;0.90;;;;;;;;;;5045427;28;20327;-83
2023/07/30 11:28:35;;;;;;;2.05;1.05;;;;;;;;;;5042537;28;20233;-84
2023/07/30 11:31:03;;;;;;;1.35;1.00;;;;;;;;;;5041853;28;20222;-82
2023/07/30 11:33:30;;;;;;;2.92;1.00;;;;;;;;;;5043606;28;20277;-82
2023/07/30 11:35:58;;;;;;;1.83;0.80;;;;;;;;;;5051340;28;20203;-85
2023/07/30 11:38:25;;;;;;;0.90;0.90;;;;;;;;;;5044325;28;20601;-83
2023/07/30 11:40:52;;;;;;;1.13;0.90;;;;;;;;;;5039831;28;20233;-85
2023/07/30 11:43:21;;;;;;;1.52;0.90;;;;;;;;;;5047336;28;20233;-81
2023/07/30 11:45:48;;;;;;;2.25;0.80;;;;;;;;;;5045127;28;20214;-82
2023/07/30 11:48:15;;;;;;;1.77;0.80;;;;;;;;;;5043761;28;20572;-82
2023/07/30 11:50:49;;;;;;;3.60;1.40;;;;;;;;;;5047115;28;20218;-82
2023/07/30 11:53:16;;;;;;;3.15;0.98;;;;;;;;;;5048037;28;20230;-83
2023/07/30 11:55:44;;;;;;;2.47;1.25;;;;;;;;;;5031937;28;20230;-82
2023/07/30 11:58:12;;;;;;;1.85;1.10;;;;;;;;;;5041399;28;20718;-82
2023/07/30 12:00:41;;;;;;;3.47;1.08;;;;;;;;;;5041783;28;20238;-83
2023/07/30 12:03:08;;;;;;;2.15;1.10;;;;;;;;;;5041097;28;20238;-81
2023/07/30 12:05:36;;;;;;;2.65;1.00;;;;;;;;;;5040344;28;20206;-82
2023/07/30 12:08:03;;;;;;;2.05;1.00;;;;;;;;;;5041238;28;20227;-82
2023/07/30 12:10:43;;;;;;;2.80;1.30;;;;;;;;;;5041476;28;20708;-83
2023/07/30 12:13:12;;;;;;;3.78;1.40;;;;;;;;;;5041240;28;20230;-81
2023/07/30 12:15:41;;;;;;;1.92;1.00;;;;;;;;;;5041810;28;20205;-85
2023/07/30 12:18:08;;;;;;;2.95;1.48;;;;;;;;;;5044926;28;20230;-83
2023/07/30 12:20:35;;;;;;;2.20;0.98;;;;;;;;;;5044731;28;20225;-85
2023/07/30 12:23:03;;;;;;;1.45;0.90;;;;;;;;;;5040832;28;20246;-86
2023/07/30 12:25:30;;;;;;;1.60;1.23;;;;;;;;;;5041259;28;20205;-80
2023/07/30 12:27:57;;;;;;;1.80;1.00;;;;;;;;;;5042919;28;20241;-80
2023/07/30 12:30:26;;;;;;;3.45;1.23;;;;;;;;;;5041385;28;20222;-80
2023/07/30 12:32:54;;;;;;;2.38;1.27;;;;;;;;;;5041878;28;20289;-81
2023/07/30 12:35:21;;;;;;;2.83;1.23;;;;;;;;;;5044579;28;20209;-80
2023/07/30 12:37:48;;;;;;;4.03;1.42;;;;;;;;;;5043299;28;20225;-81
2023/07/30 12:40:15;;;;;;;2.38;1.13;;;;;;;;;;5040989;28;20234;-82
2023/07/30 12:42:42;;;;;;;3.08;1.20;;;;;;;;;;5047309;28;20241;-82
2023/07/30 12:45:10;;;;;;;1.40;0.98;;;;;;;;;;5052099;28;20206;-82
2023/07/30 12:47:37;;;;;;;2.72;1.10;;;;;;;;;;5043233;28;20746;-81
2023/07/30 12:50:06;;;;;;;1.98;0.85;;;;;;;;;;5040571;28;20311;-82
2023/07/30 12:52:33;;;;;;;4.03;1.50;;;;;;;;;;5047062;28;20232;-83
2023/07/30 12:55:00;;;;;;;4.03;1.15;;;;;;;;;;5043482;28;20321;-83
2023/07/30 12:57:27;;;;;;;3.85;1.20;;;;;;;;;;5041059;28;20230;-83
2023/07/30 12:59:54;;;;;;;1.27;0.90;;;;;;;;;;5061493;28;20230;-82
2023/07/30 13:02:21;;;;;;;1.25;1.10;;;;;;;;;;5045806;28;20234;-82
2023/07/30 13:04:48;;;;;;;1.30;1.20;;;;;;;;;;5040081;28;20202;-83
2023/07/30 13:07:17;;;;;;;3.22;1.40;;;;;;;;;;5035454;28;20229;-83
2023/07/30 13:09:44;;;;;;;4.97;1.08;;;;;;;;;;5043223;28;20226;-83
2023/07/30 13:12:11;;;;;;;4.03;1.23;;;;;;;;;;5044043;28;20253;-82
2023/07/30 13:14:38;;;;;;;2.35;1.35;;;;;;;;;;5040847;28;20222;-83
2023/07/30 13:17:05;;;;;;;1.73;0.93;;;;;;;;;;5040218;28;20234;-83
2023/07/30 13:19:32;;;;;;;2.78;1.20;;;;;;;;;;5039981;28;20230;-84
2023/07/30 13:22:00;;;;;;;1.35;1.10;;;;;;;;;;5072155;22;20344;-85
2023/07/30 13:24:31;;;;;;;1.65;0.70;;;;;;;;;;5052820;28;20206;-86
2023/07/30 13:26:58;;;;;;;1.63;0.93;;;;;;;;;;5059573;28;20327;-85
2023/07/30 13:29:25;;;;;;;1.60;1.23;;;;;;;;;;5051542;28;20682;-87
2023/07/30 13:31:52;;;;;;;1.88;0.93;;;;;;;;;;5059055;28;20237;-86
2023/07/30 13:34:19;;;;;;;2.35;1.30;;;;;;;;;;5054915;28;20209;-87
2023/07/30 13:36:46;;;;;;;2.00;1.10;;;;;;;;;;5041808;28;20233;-87
2023/07/30 13:39:13;;;;;;;1.95;1.02;;;;;;;;;;5045763;28;20221;-87
2023/07/30 13:41:42;;;;;;;2.08;1.30;;;;;;;;;;5050134;28;20238;-87
2023/07/30 13:44:10;;;;;;;2.42;1.30;;;;;;;;;;5062525;28;20213;-86
2023/07/30 13:46:37;;;;;;;2.95;1.13;;;;;;;;;;5055085;28;20297;-87
2023/07/30 13:49:05;;;;;;;3.47;1.30;;;;;;;;;;5046713;28;20202;-86
2023/07/30 13:51:32;;;;;;;1.33;1.00;;;;;;;;;;5048792;28;20221;-86
2023/07/30 13:54:00;;;;;;;1.80;0.90;;;;;;;;;;5064953;28;20241;-87
2023/07/30 13:56:27;;;;;;;2.17;1.00;;;;;;;;;;5066061;28;20212;-88
2023/07/30 13:58:55;;;;;;;3.67;1.08;;;;;;;;;;5067488;28;20233;-87
2023/07/30 14:01:22;;;;;;;3.92;1.02;;;;;;;;;;5045949;28;20231;-87
2023/07/30 14:03:49;;;;;;;1.30;0.80;;;;;;;;;;5056215;28;20240;-87
2023/07/30 14:06:16;;;;;;;2.67;1.40;;;;;;;;;;5058871;28;20206;-86
2023/07/30 14:08:43;;;;;;;1.08;0.90;;;;;;;;;;5058930;28;20238;-87
2023/07/30 14:11:11;;;;;;;2.78;1.10;;;;;;;;;;5061218;28;20251;-87
2023/07/30 14:13:38;;;;;;;2.25;1.17;;;;;;;;;;5053302;28;20226;-87
2023/07/30 14:16:06;;;;;;;1.10;0.82;;;;;;;;;;5060056;28;20206;-87
2023/07/30 14:18:34;;;;;;;2.38;1.30;;;;;;;;;;5062081;28;20610;-87
2023/07/30 14:21:02;;;;;;;1.98;1.17;;;;;;;;;;5053689;28;20257;-86
2023/07/30 14:23:29;;;;;;;4.40;1.65;;;;;;;;;;5055279;28;20780;-86
2023/07/30 14:25:56;;;;;;;2.38;0.90;;;;;;;;;;5061479;28;20209;-87
2023/07/30 14:28:23;;;;;;;1.65;1.17;;;;;;;;;;5047713;28;20232;-88
2023/07/30 14:30:50;;;;;;;2.85;1.38;;;;;;;;;;5067704;28;20229;-87
2023/07/30 14:33:19;;;;;;;2.65;1.10;;;;;;;;;;5053397;28;20641;-87
2023/07/30 14:35:46;;;;;;;2.17;1.30;;;;;;;;;;5054896;28;20221;-87
2023/07/30 14:38:13;;;;;;;2.90;1.30;;;;;;;;;;5048861;28;20226;-87
2023/07/30 14:40:40;;;;;;;2.40;1.45;;;;;;;;;;5066096;28;20718;-87
2023/07/30 14:43:07;;;;;;;4.38;1.35;;;;;;;;;;5061262;28;20229;-87
2023/07/30 14:45:34;;;;;;;4.35;1.50;;;;;;;;;;5062801;28;20708;-87
2023/07/30 14:48:01;;;;;;;3.03;1.20;;;;;;;;;;5054228;28;20741;-87
2023/07/30 14:50:30;;;;;;;2.03;1.10;;;;;;;;;;5053128;28;20230;-88